Time;durP1;ratioP1;P1;durP2;ratioP2;P2;SDS_P1;SDS_P2;PMS_P1;PMS_P2;Temp;Humidity;BMP_temperature;BMP_pressure;BME280_temperature;BME280_humidity;BME280_pressure;Samples;Min_cycle;Max_cycle;Signal;HPM_P1;HPM_P2
2022/11/08 00:02:26;;;;;;;9.50;2.57;;;12.20;99.90;;;;;;5050208;28;20203;-70
2022/11/08 00:04:53;;;;;;;6.93;2.73;;;12.20;99.90;;;;;;5057982;28;20199;-70
2022/11/08 00:15:37;;;;;;;10.90;3.70;;;12.10;99.90;;;;;;5061295;28;20197;-69
2022/11/08 00:18:06;;;;;;;7.63;2.60;;;12.20;99.90;;;;;;5060051;28;20199;-66
2022/11/08 00:20:33;;;;;;;5.77;2.23;;;12.20;99.90;;;;;;5060594;28;20261;-68
2022/11/08 00:23:00;;;;;;;5.10;2.57;;;12.20;99.90;;;;;;5046457;28;20199;-68
2022/11/08 00:25:27;;;;;;;9.13;2.80;;;12.30;99.90;;;;;;5044371;28;20222;-68
2022/11/08 00:27:54;;;;;;;10.17;2.63;;;12.30;99.90;;;;;;5049409;28;20317;-69
2022/11/08 00:30:21;;;;;;;9.00;2.70;;;12.40;99.90;;;;;;5058654;28;20286;-68
2022/11/08 00:32:48;;;;;;;12.60;3.43;;;12.30;99.90;;;;;;5059310;28;20187;-70
2022/11/08 00:35:15;;;;;;;11.87;2.77;;;12.30;99.90;;;;;;5042815;28;20203;-70
2022/11/08 00:37:42;;;;;;;9.63;2.47;;;12.30;99.90;;;;;;5057929;28;20728;-70
2022/11/08 00:40:09;;;;;;;7.63;2.50;;;12.20;99.90;;;;;;5049484;28;20753;-70
2022/11/08 00:42:36;;;;;;;12.63;3.13;;;12.20;99.90;;;;;;5058992;28;20254;-68
2022/11/08 00:45:04;;;;;;;7.53;2.60;;;12.20;99.90;;;;;;5042493;28;20202;-67
2022/11/08 00:47:31;;;;;;;9.33;2.40;;;12.20;99.90;;;;;;5049724;28;20332;-68
2022/11/08 00:49:58;;;;;;;8.60;2.47;;;12.20;99.90;;;;;;5043068;28;20545;-70
2022/11/08 00:52:25;;;;;;;10.23;2.17;;;12.20;99.90;;;;;;5042206;28;20222;-70
2022/11/08 00:54:52;;;;;;;9.30;2.93;;;12.10;99.90;;;;;;5059128;28;20691;-69
2022/11/08 00:57:19;;;;;;;9.70;2.30;;;12.10;99.90;;;;;;5050824;28;20667;-69
2022/11/08 00:59:56;;;;;;;7.83;2.33;;;12.10;99.90;;;;;;5043156;28;20223;-68
2022/11/08 01:02:23;;;;;;;6.97;2.50;;;12.10;99.90;;;;;;5049612;28;20209;-68
2022/11/08 01:04:50;;;;;;;6.17;2.23;;;12.10;99.90;;;;;;5060411;28;20219;-68
2022/11/08 01:07:17;;;;;;;10.87;2.63;;;12.00;99.90;;;;;;5062045;28;20192;-68
2022/11/08 01:09:45;;;;;;;9.60;2.73;;;12.00;99.90;;;;;;5043654;28;20191;-68
2022/11/08 01:12:12;;;;;;;5.57;2.40;;;12.00;99.90;;;;;;5062884;28;20231;-68
2022/11/08 01:14:38;;;;;;;7.47;2.30;;;11.90;99.90;;;;;;5061369;28;20225;-67
2022/11/08 01:17:05;;;;;;;10.17;2.67;;;11.90;99.90;;;;;;5049456;28;20559;-68
2022/11/08 01:19:35;;;;;;;5.13;2.30;;;11.80;99.90;;;;;;5050698;28;20223;-69
2022/11/08 01:22:05;;;;;;;8.13;2.23;;;11.70;99.90;;;;;;5061185;28;20600;-69
2022/11/08 01:24:36;;;;;;;9.87;2.70;;;11.80;99.90;;;;;;5047273;28;20524;-69
2022/11/08 01:27:03;;;;;;;9.23;2.90;;;11.70;99.90;;;;;;5060927;28;20306;-69
2022/11/08 01:29:32;;;;;;;7.97;2.63;;;11.80;99.90;;;;;;5043684;28;20598;-68
2022/11/08 01:32:01;;;;;;;9.00;2.90;;;11.80;99.90;;;;;;5061307;28;20200;-68
2022/11/08 01:34:31;;;;;;;8.13;2.80;;;11.90;99.90;;;;;;5043825;28;20210;-69
2022/11/08 01:36:58;;;;;;;10.07;2.67;;;12.00;99.90;;;;;;5042922;28;20870;-68
2022/11/08 01:39:26;;;;;;;8.17;2.27;;;12.00;99.90;;;;;;5043388;28;20218;-69
2022/11/08 01:41:53;;;;;;;5.13;1.90;;;12.10;99.90;;;;;;5060596;28;20221;-68
2022/11/08 01:44:21;;;;;;;4.33;2.30;;;12.20;99.90;;;;;;5042584;28;20253;-69
2022/11/08 01:46:48;;;;;;;8.43;2.57;;;12.20;99.90;;;;;;5048159;28;20345;-69
2022/11/08 01:49:23;;;;;;;6.23;2.30;;;12.30;95.10;;;;;;5049708;28;20194;-69
2022/11/08 01:52:01;;;;;;;6.10;2.30;;;12.40;87.70;;;;;;5048035;28;20205;-69
2022/11/08 01:54:52;;;;;;;7.20;3.10;;;12.40;84.70;;;;;;5041731;28;20266;-66
2022/11/08 01:57:30;;;;;;;9.90;2.37;;;12.50;45.00;;;;;;5050152;28;20188;-67
2022/11/08 02:00:04;;;;;;;9.50;3.03;;;12.40;47.40;;;;;;5033536;28;20694;-68
2022/11/08 02:02:35;;;;;;;4.83;2.07;;;12.40;50.90;;;;;;5042320;28;20266;-70
2022/11/08 02:05:06;;;;;;;6.63;2.47;;;12.40;47.10;;;;;;5031939;28;20277;-68
2022/11/08 02:07:34;;;;;;;5.87;2.23;;;12.50;35.00;;;;;;5059236;28;20270;-68
2022/11/08 02:10:03;;;;;;;9.00;2.57;;;12.50;27.60;;;;;;5061119;28;20645;-67
2022/11/08 02:12:30;;;;;;;9.13;2.33;;;12.50;27.40;;;;;;5050551;28;20223;-67
2022/11/08 02:15:01;;;;;;;6.50;1.80;;;12.50;19.90;;;;;;5052268;28;20300;-68
2022/11/08 02:17:28;;;;;;;9.43;2.10;;;12.50;14.70;;;;;;5064197;28;20196;-68
2022/11/08 02:19:55;;;;;;;6.03;2.20;;;12.50;16.30;;;;;;5062869;28;20227;-68
2022/11/08 02:22:30;;;;;;;6.33;2.20;;;12.40;26.90;;;;;;5047217;28;20184;-65
2022/11/08 02:24:57;;;;;;;6.50;1.73;;;12.50;20.30;;;;;;5035381;28;20241;-65
2022/11/08 02:27:25;;;;;;;7.17;2.20;;;12.40;24.90;;;;;;5063803;28;20249;-66
2022/11/08 02:29:53;;;;;;;8.37;2.37;;;12.50;24.70;;;;;;5045559;28;20256;-66
2022/11/08 02:32:23;;;;;;;5.07;1.80;;;12.50;21.10;;;;;;5031129;28;20298;-66
2022/11/08 02:34:55;;;;;;;16.10;2.50;;;12.60;4.20;;;;;;5051962;28;20745;-66
2022/11/08 02:37:25;;;;;;;6.33;2.30;;;12.60;12.10;;;;;;5062361;28;20689;-66
2022/11/08 02:39:52;;;;;;;4.33;1.87;;;12.60;11.00;;;;;;5046244;28;20305;-66
2022/11/08 02:42:20;;;;;;;5.63;2.00;;;12.60;16.10;;;;;;5046135;28;20274;-66
2022/11/08 02:44:47;;;;;;;7.93;2.30;;;12.60;13.60;;;;;;5028542;28;20199;-66
2022/11/08 02:47:15;;;;;;;6.43;1.70;;;12.70;6.60;;;;;;5063099;28;20242;-68
2022/11/08 02:49:42;;;;;;;7.80;2.27;;;12.70;1.20;;;;;;5061870;28;20574;-65
2022/11/08 02:52:09;;;;;;;6.50;1.83;;;12.70;1.00;;;;;;5052969;28;20205;-69
2022/11/08 02:54:36;;;;;;;6.73;1.93;;;12.70;1.00;;;;;;5054054;28;20252;-68
2022/11/08 02:57:03;;;;;;;6.97;2.27;;;12.70;1.00;;;;;;5048276;28;20820;-70
2022/11/08 02:59:30;;;;;;;5.67;1.90;;;12.70;1.00;;;;;;5044614;28;20223;-65
2022/11/08 03:02:00;;;;;;;9.47;2.27;;;12.70;1.00;;;;;;5046260;28;20196;-65
2022/11/08 03:04:38;;;;;;;5.13;1.80;;;12.70;10.20;;;;;;5044686;28;20183;-65
2022/11/08 03:07:05;;;;;;;9.03;1.97;;;12.60;18.80;;;;;;5053177;28;20219;-65
2022/11/08 03:09:36;;;;;;;5.27;1.90;;;12.60;29.40;;;;;;5063255;28;20199;-66
2022/11/08 03:12:06;;;;;;;6.10;2.00;;;12.50;41.50;;;;;;5052535;28;20198;-65
2022/11/08 03:14:33;;;;;;;6.03;2.20;;;12.50;47.10;;;;;;5063800;28;20647;-66
2022/11/08 03:17:03;;;;;;;5.87;2.50;;;12.40;54.60;;;;;;5063839;28;20248;-66
2022/11/08 03:19:34;;;;;;;4.73;2.10;;;12.60;25.60;;;;;;5049755;28;20580;-65
2022/11/08 03:22:03;;;;;;;4.50;2.50;;;12.50;48.40;;;;;;5035768;28;20191;-65
2022/11/08 03:24:30;;;;;;;7.13;2.20;;;12.40;61.40;;;;;;5045249;28;20323;-65
2022/11/08 03:27:01;;;;;;;8.73;2.53;;;12.40;48.90;;;;;;5063532;28;20192;-63
2022/11/08 03:29:30;;;;;;;7.40;2.60;;;12.40;52.80;;;;;;5050106;28;20207;-66
2022/11/08 03:31:57;;;;;;;9.30;2.37;;;12.40;26.80;;;;;;5046351;28;20995;-65
2022/11/08 03:34:24;;;;;;;7.47;2.10;;;12.40;38.20;;;;;;5045111;28;20192;-65
2022/11/08 03:36:51;;;;;;;5.60;2.03;;;12.30;43.40;;;;;;5061694;28;20219;-65
2022/11/08 03:39:18;;;;;;;7.90;1.83;;;12.20;98.10;;;;;;5051955;28;20191;-65
2022/11/08 03:41:45;;;;;;;8.53;2.20;;;12.20;87.10;;;;;;5063933;28;21216;-65
2022/11/08 03:44:12;;;;;;;5.00;2.13;;;12.10;95.20;;;;;;5063164;28;20231;-66
2022/11/08 03:46:39;;;;;;;4.60;2.00;;;12.00;99.90;;;;;;5044535;28;20188;-67
2022/11/08 03:49:06;;;;;;;10.20;2.60;;;11.90;99.90;;;;;;5044168;28;20669;-67
2022/11/08 03:51:33;;;;;;;6.47;2.47;;;11.80;99.90;;;;;;5051250;28;20299;-65
2022/11/08 03:54:00;;;;;;;9.57;2.33;;;11.80;99.90;;;;;;5046498;28;20294;-65
2022/11/08 03:56:26;;;;;;;5.43;1.90;;;11.70;99.90;;;;;;5046538;28;20277;-64
2022/11/08 03:58:53;;;;;;;4.37;2.00;;;11.70;99.90;;;;;;5051076;28;20210;-65
2022/11/08 04:01:20;;;;;;;8.17;2.23;;;11.70;99.90;;;;;;5045196;28;20295;-64
2022/11/08 04:03:47;;;;;;;7.07;2.27;;;11.70;99.90;;;;;;5028509;28;20206;-64
2022/11/08 04:06:14;;;;;;;8.30;2.17;;;11.50;99.90;;;;;;5051150;28;20670;-64
2022/11/08 04:08:41;;;;;;;3.50;1.90;;;11.50;99.90;;;;;;5063934;28;20211;-65
2022/11/08 04:16:39;;;;;;;4.07;1.93;;;11.50;99.90;;;;;;5042281;28;20198;-66
2022/11/08 04:21:53;;;;;;;9.07;2.27;;;11.50;99.90;;;;;;5058628;28;20211;-65
2022/11/08 04:24:20;;;;;;;6.53;2.27;;;11.30;99.90;;;;;;5060118;28;20291;-65
2022/11/08 04:26:47;;;;;;;8.13;2.07;;;11.30;99.90;;;;;;5062471;28;20622;-65
2022/11/08 04:29:14;;;;;;;7.23;2.03;;;11.30;99.90;;;;;;5061157;28;20328;-65
2022/11/08 04:31:41;;;;;;;5.13;2.13;;;11.30;99.90;;;;;;5062648;28;20199;-65
2022/11/08 04:34:08;;;;;;;5.37;2.07;;;11.20;99.90;;;;;;5060409;28;20234;-65
2022/11/08 04:36:35;;;;;;;5.70;2.20;;;11.20;99.90;;;;;;5059680;28;20234;-65
2022/11/08 04:39:03;;;;;;;5.90;2.10;;;11.20;99.90;;;;;;5041583;28;20196;-65
2022/11/08 04:41:30;;;;;;;3.93;2.20;;;11.30;99.90;;;;;;5042966;28;20264;-66
2022/11/08 04:43:57;;;;;;;5.93;2.33;;;11.30;99.90;;;;;;5058380;28;20218;-65
2022/11/08 04:46:26;;;;;;;6.30;2.07;;;11.30;99.90;;;;;;5049279;28;20249;-66
2022/11/08 04:48:58;;;;;;;4.27;2.00;;;11.30;99.90;;;;;;5047597;28;20278;-66
2022/11/08 04:51:28;;;;;;;4.80;2.30;;;11.40;99.90;;;;;;5042374;28;20202;-67
2022/11/08 04:54:00;;;;;;;6.67;2.10;;;11.40;99.90;;;;;;5043582;28;20190;-66
2022/11/08 04:56:29;;;;;;;5.63;2.00;;;11.20;99.90;;;;;;5048353;28;20222;-66
2022/11/08 04:58:58;;;;;;;6.47;2.07;;;11.10;99.90;;;;;;5042619;28;20195;-66
2022/11/08 05:01:30;;;;;;;10.37;2.10;;;11.00;99.90;;;;;;5059516;28;20666;-66
2022/11/08 05:03:57;;;;;;;5.80;2.20;;;10.90;99.90;;;;;;5058658;28;20198;-66
2022/11/08 05:06:27;;;;;;;12.10;2.40;;;10.90;99.90;;;;;;5042343;28;20191;-66
2022/11/08 05:08:55;;;;;;;7.00;2.20;;;10.80;99.90;;;;;;5058472;28;20202;-66
2022/11/08 05:11:24;;;;;;;7.13;2.40;;;10.70;1.00;;;;;;5043298;28;20195;-66
2022/11/08 05:13:52;;;;;;;6.57;2.60;;;10.70;1.00;;;;;;5047310;28;20658;-66
2022/11/08 05:16:22;;;;;;;7.27;2.47;;;10.70;1.00;;;;;;5056732;28;20209;-66
2022/11/08 05:18:50;;;;;;;7.03;2.70;;;10.60;1.00;;;;;;5056011;28;20242;-66
2022/11/08 05:24:06;;;;;;;5.50;2.67;;;10.60;1.00;;;;;;5041967;28;20199;-68
2022/11/08 05:26:35;;;;;;;9.77;3.53;;;10.50;1.00;;;;;;5041582;28;20200;-66
2022/11/08 05:29:02;;;;;;;6.00;2.40;;;10.60;1.00;;;;;;5039349;28;20693;-68
2022/11/08 05:31:30;;;;;;;7.90;2.30;;;10.50;1.00;;;;;;5041520;28;20206;-67
2022/11/08 05:33:58;;;;;;;5.37;2.77;;;10.60;1.00;;;;;;5061548;28;20224;-67
2022/11/08 05:36:26;;;;;;;6.30;2.50;;;10.50;1.00;;;;;;5047092;28;20235;-67
2022/11/08 05:38:54;;;;;;;7.60;2.60;;;10.50;1.00;;;;;;5031017;28;20211;-66
2022/11/08 05:41:23;;;;;;;4.90;2.13;;;10.50;1.00;;;;;;5060380;28;20237;-67
2022/11/08 05:43:52;;;;;;;7.57;2.23;;;10.50;1.00;;;;;;5043066;28;20207;-69
2022/11/08 05:46:21;;;;;;;6.40;2.50;;;10.50;1.00;;;;;;5043006;28;20669;-65
2022/11/08 05:48:49;;;;;;;6.17;3.03;;;10.50;1.00;;;;;;5062360;28;20203;-68
2022/11/08 05:51:17;;;;;;;9.67;3.33;;;10.50;1.00;;;;;;5064339;28;20205;-67
2022/11/08 05:53:45;;;;;;;15.20;3.27;;;10.40;1.00;;;;;;5045619;28;20566;-67
2022/11/08 05:56:13;;;;;;;7.40;2.90;;;10.30;1.00;;;;;;5052256;28;20249;-67
2022/11/08 05:58:40;;;;;;;9.07;3.50;;;10.30;1.00;;;;;;5061807;28;20200;-67
2022/11/08 06:01:10;;;;;;;14.43;9.63;;;10.20;1.00;;;;;;5051468;28;20218;-67
2022/11/08 06:03:37;;;;;;;7.03;2.70;;;10.30;1.00;;;;;;5049248;28;20282;-67
2022/11/08 06:06:14;;;;;;;4.77;2.50;;;10.50;1.00;;;;;;5042929;28;20203;-68
2022/11/08 06:08:41;;;;;;;6.17;2.53;;;10.60;1.00;;;;;;5060591;28;20209;-67
2022/11/08 06:11:20;;;;;;;7.77;2.37;;;10.60;1.00;;;;;;5053752;28;20653;-67
2022/11/08 06:13:47;;;;;;;4.03;2.20;;;10.70;1.00;;;;;;5050186;28;20203;-66
2022/11/08 06:16:15;;;;;;;5.30;2.63;;;10.80;1.00;;;;;;5062702;28;20202;-67
2022/11/08 06:18:42;;;;;;;8.00;2.67;;;10.70;1.00;;;;;;5049467;28;20203;-67
2022/11/08 06:21:14;;;;;;;6.97;2.97;;;10.70;1.00;;;;;;5043733;28;20301;-67
2022/11/08 06:23:42;;;;;;;7.10;2.40;;;10.60;1.00;;;;;;5045096;28;20196;-66
2022/11/08 06:26:09;;;;;;;7.63;2.73;;;10.60;1.00;;;;;;5063248;28;20201;-66
2022/11/08 06:28:36;;;;;;;7.57;2.33;;;10.70;99.90;;;;;;5034569;28;20288;-66
2022/11/08 06:31:03;;;;;;;6.17;2.70;;;10.70;99.90;;;;;;5046690;28;20663;-66
2022/11/08 06:33:31;;;;;;;5.80;2.70;;;10.60;99.90;;;;;;5045522;28;20214;-66
2022/11/08 06:35:58;;;;;;;7.20;2.63;;;10.60;99.90;;;;;;5045383;28;20223;-66
2022/11/08 06:38:25;;;;;;;4.97;2.50;;;10.70;99.90;;;;;;5050520;28;20221;-66
2022/11/08 06:40:52;;;;;;;6.80;2.27;;;10.70;99.90;;;;;;5026107;28;20230;-66
2022/11/08 06:43:19;;;;;;;4.67;2.33;;;10.70;99.90;;;;;;5035248;28;20557;-66
2022/11/08 06:45:47;;;;;;;3.77;2.03;;;10.80;99.90;;;;;;5050962;28;20226;-66
2022/11/08 06:48:14;;;;;;;6.90;2.63;;;10.80;99.90;;;;;;5048492;28;20201;-66
2022/11/08 06:50:41;;;;;;;4.47;2.40;;;10.80;99.90;;;;;;5044487;28;20287;-66
2022/11/08 06:53:11;;;;;;;9.10;2.43;;;10.90;99.90;;;;;;5049617;28;20205;-66
2022/11/08 06:55:38;;;;;;;4.53;2.20;;;10.90;99.90;;;;;;5060951;28;20250;-66
2022/11/08 06:58:06;;;;;;;5.17;2.40;;;11.00;99.90;;;;;;5049483;28;20226;-66
2022/11/08 07:00:33;;;;;;;5.63;2.50;;;11.00;99.90;;;;;;5060722;28;20200;-66
2022/11/08 07:03:02;;;;;;;7.07;2.57;;;11.00;99.90;;;;;;5034953;28;20727;-66
2022/11/08 07:05:31;;;;;;;5.17;2.70;;;10.90;99.90;;;;;;5049648;28;20188;-66
2022/11/08 07:07:59;;;;;;;3.57;2.37;;;11.00;99.90;;;;;;5041765;28;20697;-66
2022/11/08 07:10:28;;;;;;;8.90;2.63;;;11.00;99.90;;;;;;5061515;28;20255;-66
2022/11/08 07:13:00;;;;;;;4.67;2.77;;;11.10;99.90;;;;;;5061271;28;20241;-66
2022/11/08 07:15:28;;;;;;;8.13;2.60;;;11.10;96.10;;;;;;5060995;28;20310;-66
2022/11/08 07:18:02;;;;;;;6.13;2.47;;;11.20;81.20;;;;;;5061017;28;20230;-66
2022/11/08 07:20:30;;;;;;;4.03;2.00;;;11.20;61.50;;;;;;5031973;28;20202;-66
2022/11/08 07:22:58;;;;;;;6.47;2.30;;;11.20;44.20;;;;;;5059776;28;20282;-66
2022/11/08 07:25:25;;;;;;;8.53;2.90;;;11.30;15.80;;;;;;5033742;28;20712;-66
2022/11/08 07:27:57;;;;;;;4.77;2.30;;;11.40;1.00;;;;;;5025490;28;21813;-67
2022/11/08 07:30:26;;;;;;;5.70;2.10;;;11.50;1.00;;;;;;5046402;28;20233;-66
2022/11/08 07:32:54;;;;;;;4.27;1.90;;;11.50;1.00;;;;;;5042780;28;20203;-65
2022/11/08 07:35:22;;;;;;;5.03;2.43;;;11.50;1.00;;;;;;5059477;28;20950;-67
2022/11/08 07:37:50;;;;;;;6.03;2.57;;;11.60;1.00;;;;;;5050544;28;20227;-65
2022/11/08 07:40:16;;;;;;;5.93;2.20;;;11.70;1.00;;;;;;5051083;28;20203;-65
2022/11/08 07:42:43;;;;;;;7.73;2.40;;;11.70;1.00;;;;;;5064823;28;20746;-66
2022/11/08 07:45:30;;;;;;;3.97;2.13;;;11.70;1.00;;;;;;5049169;28;20198;-66
2022/11/08 07:48:03;;;;;;;3.23;2.13;;;11.70;1.00;;;;;;5057622;28;20941;-65
2022/11/08 07:50:37;;;;;;;4.80;2.20;;;11.80;1.00;;;;;;5045142;28;20206;-66
2022/11/08 07:53:04;;;;;;;6.30;2.03;;;11.90;1.00;;;;;;5043163;28;20203;-66
2022/11/08 07:55:31;;;;;;;5.23;2.20;;;11.90;1.00;;;;;;5040382;28;20631;-67
2022/11/08 07:58:00;;;;;;;4.90;2.40;;;12.00;1.00;;;;;;5059772;28;20195;-66
2022/11/08 08:00:29;;;;;;;3.37;2.00;;;12.20;1.00;;;;;;5045606;28;20694;-66
2022/11/08 08:02:57;;;;;;;4.27;1.80;;;12.30;1.00;;;;;;5061600;28;20565;-66
2022/11/08 08:05:31;;;;;;;5.63;2.00;;;12.50;1.00;;;;;;5049491;28;20211;-66
2022/11/08 08:08:00;;;;;;;4.17;1.80;;;12.60;1.00;;;;;;5050604;28;20242;-66
2022/11/08 08:10:29;;;;;;;2.77;1.80;;;12.80;1.00;;;;;;5048696;28;20183;-66
2022/11/08 08:12:56;;;;;;;2.63;1.63;;;12.90;1.00;;;;;;5048676;28;20199;-66
2022/11/08 08:15:24;;;;;;;4.37;2.30;;;13.10;1.00;;;;;;5059602;28;20818;-68
2022/11/08 08:17:51;;;;;;;4.93;1.67;;;13.40;1.00;;;;;;5026124;28;20210;-67
2022/11/08 08:20:18;;;;;;;5.20;1.30;;;13.70;1.00;;;;;;5060525;28;20207;-67
2022/11/08 08:22:47;;;;;;;4.27;1.30;;;13.90;1.00;;;;;;5060343;28;20234;-68
2022/11/08 08:25:15;;;;;;;3.17;1.50;;;14.10;1.00;;;;;;5042903;28;20616;-68
2022/11/08 08:27:56;;;;;;;4.53;1.57;;;14.20;1.00;;;;;;5060079;28;20758;-67
2022/11/08 08:30:24;;;;;;;2.95;1.50;;;14.30;1.00;;;;;;5037939;28;20497;-67
2022/11/08 08:32:51;;;;;;;3.13;1.45;;;14.40;1.00;;;;;;5059709;28;20210;-68
2022/11/08 08:35:35;;;;;;;3.42;1.48;;;14.40;1.00;;;;;;5059178;28;20206;-66
2022/11/08 08:38:02;;;;;;;3.67;1.50;;;14.60;1.00;;;;;;5042278;28;20270;-67
2022/11/08 08:40:30;;;;;;;3.60;1.77;;;14.70;1.00;;;;;;5048807;28;20199;-67
2022/11/08 08:42:59;;;;;;;2.45;1.30;;;14.70;1.00;;;;;;5042845;28;20265;-67
2022/11/08 08:45:26;;;;;;;2.70;1.70;;;14.80;1.00;;;;;;5049046;28;20248;-67
2022/11/08 08:47:55;;;;;;;6.50;1.30;;;14.90;1.00;;;;;;5056933;28;20187;-68
2022/11/08 08:50:24;;;;;;;1.75;1.10;;;15.10;1.00;;;;;;5040608;28;20244;-68
2022/11/08 08:52:55;;;;;;;1.70;1.27;;;15.50;1.00;;;;;;5040876;28;20225;-67
2022/11/08 08:55:22;;;;;;;2.15;1.33;;;15.70;1.00;;;;;;5059532;28;20209;-67
2022/11/08 08:57:49;;;;;;;3.63;1.80;;;16.40;1.00;;;;;;5043040;28;20678;-67
2022/11/08 09:00:16;;;;;;;5.90;2.00;;;15.80;1.00;;;;;;5025529;28;20306;-67
2022/11/08 09:03:07;;;;;;;7.07;2.13;;;16.00;1.00;;;;;;5060154;28;20273;-67
2022/11/08 09:05:34;;;;;;;3.95;1.30;;;16.60;1.00;;;;;;5041246;28;20273;-67
2022/11/08 09:08:02;;;;;;;3.30;1.50;;;16.60;1.00;;;;;;5059482;28;20250;-67
2022/11/08 09:10:29;;;;;;;2.20;1.20;;;17.30;1.00;;;;;;5042483;28;20294;-67
2022/11/08 09:12:56;;;;;;;2.83;1.20;;;18.80;1.00;;;;;;5041561;28;20258;-68
2022/11/08 09:15:23;;;;;;;2.58;1.13;;;19.30;1.00;;;;;;5048514;28;20218;-68
2022/11/08 09:17:53;;;;;;;2.95;1.52;;;19.20;1.00;;;;;;5041665;28;20199;-67
2022/11/08 09:20:21;;;;;;;2.65;1.40;;;18.30;1.00;;;;;;5062165;28;20751;-68
2022/11/08 09:22:48;;;;;;;2.33;1.23;;;19.00;1.00;;;;;;5043666;28;20250;-66
2022/11/08 09:25:15;;;;;;;4.43;1.33;;;18.80;1.00;;;;;;5058606;28;20267;-68
2022/11/08 09:27:42;;;;;;;3.75;1.75;;;18.90;1.00;;;;;;5041428;28;20637;-68
2022/11/08 09:30:09;;;;;;;3.42;1.25;;;18.20;1.00;;;;;;5059490;28;20259;-68
2022/11/08 09:32:36;;;;;;;3.92;1.77;;;18.00;1.00;;;;;;5058928;28;20282;-67
2022/11/08 09:35:23;;;;;;;3.67;1.27;;;18.00;1.00;;;;;;5057869;28;20195;-67
2022/11/08 09:37:53;;;;;;;2.65;1.40;;;17.80;1.00;;;;;;5047391;28;20237;-68
2022/11/08 09:40:29;;;;;;;3.63;1.52;;;17.50;1.00;;;;;;5057685;28;20195;-68
2022/11/08 09:43:25;;;;;;;1.95;1.20;;;17.60;1.00;;;;;;5047428;28;20249;-68
2022/11/08 09:45:54;;;;;;;3.45;1.73;;;17.70;1.00;;;;;;5057958;28;20192;-67
2022/11/08 09:48:31;;;;;;;4.13;1.73;;;17.80;1.00;;;;;;5049531;28;20270;-68
2022/11/08 09:51:04;;;;;;;2.10;1.35;;;17.90;1.00;;;;;;5058962;28;20217;-66
2022/11/08 09:53:46;;;;;;;3.75;2.00;;;17.70;1.00;;;;;;5057597;28;20204;-68
2022/11/08 09:56:29;;;;;;;3.20;1.30;;;18.00;1.00;;;;;;5047527;28;20213;-65
2022/11/08 09:59:01;;;;;;;3.35;1.15;;;17.40;1.00;;;;;;5040197;28;21207;-67
2022/11/08 10:01:35;;;;;;;2.92;1.50;;;17.00;1.00;;;;;;5058196;28;20617;-66
2022/11/08 10:04:10;;;;;;;4.82;1.73;;;16.70;1.00;;;;;;5040756;28;20210;-67
2022/11/08 10:06:53;;;;;;;3.63;1.35;;;16.90;1.00;;;;;;5060378;28;20906;-67
2022/11/08 10:09:57;;;;;;;2.30;1.50;;;18.40;1.00;;;;;;5025490;28;20667;-66
2022/11/08 10:13:01;;;;;;;1.90;1.40;;;18.50;1.00;;;;;;5032855;28;20211;-67
2022/11/08 10:15:45;;;;;;;1.73;1.40;;;18.40;1.00;;;;;;5057106;28;20208;-67
2022/11/08 10:18:42;;;;;;;2.40;1.42;;;17.90;1.00;;;;;;5040950;28;20816;-67
2022/11/08 10:21:57;;;;;;;1.73;1.35;;;18.60;1.00;;;;;;5059062;28;20199;-68
2022/11/08 10:24:34;;;;;;;5.68;1.95;;;19.20;1.00;;;;;;4956631;28;20213;-66
2022/11/08 10:27:02;;;;;;;2.92;1.60;;;19.80;1.00;;;;;;4942269;28;20281;-66
2022/11/08 10:29:53;;;;;;;2.55;1.55;;;19.80;1.00;;;;;;5021549;28;20195;-66
2022/11/08 10:32:22;;;;;;;1.73;1.42;;;19.40;1.00;;;;;;5059054;28;20631;-66
2022/11/08 10:35:05;;;;;;;3.40;1.50;;;19.40;1.00;;;;;;5061252;28;20195;-67
2022/11/08 10:37:33;;;;;;;3.10;1.52;;;19.40;1.00;;;;;;5052865;28;20526;-67
2022/11/08 10:40:12;;;;;;;3.78;1.55;;;19.10;1.00;;;;;;5061837;28;20196;-66
2022/11/08 10:43:01;;;;;;;1.67;1.30;;;18.60;1.00;;;;;;5043640;28;20219;-65
2022/11/08 10:45:35;;;;;;;5.07;1.45;;;18.10;1.00;;;;;;5061321;28;20240;-67
2022/11/08 10:48:03;;;;;;;3.03;1.40;;;17.80;1.00;;;;;;5043526;28;20194;-65
2022/11/08 10:50:51;;;;;;;2.13;1.50;;;17.90;1.00;;;;;;5051289;28;20201;-67
2022/11/08 10:53:31;;;;;;;3.15;1.50;;;17.90;1.00;;;;;;5059198;28;20211;-66
2022/11/08 10:56:03;;;;;;;7.93;1.50;;;17.90;1.00;;;;;;5042284;28;20231;-66
2022/11/08 10:58:35;;;;;;;2.22;1.50;;;18.00;1.00;;;;;;5061322;28;20827;-66
2022/11/08 11:01:18;;;;;;;7.90;2.47;;;17.90;1.00;;;;;;5050552;28;20237;-66
2022/11/08 11:03:46;;;;;;;1.90;1.48;;;18.50;1.00;;;;;;5060524;28;20215;-66
2022/11/08 11:06:43;;;;;;;2.67;1.67;;;18.40;1.00;;;;;;5043871;28;20510;-65
2022/11/08 11:09:21;;;;;;;3.95;2.05;;;18.70;1.00;;;;;;5036499;28;20611;-68
2022/11/08 11:12:06;;;;;;;4.05;1.60;;;18.80;1.00;;;;;;5044769;28;20214;-66
2022/11/08 11:14:35;;;;;;;1.65;1.30;;;18.60;1.00;;;;;;5051905;28;20242;-66
2022/11/08 11:17:17;;;;;;;5.07;1.90;;;18.60;1.00;;;;;;5033422;28;20286;-67
2022/11/08 11:19:54;;;;;;;2.42;1.75;;;18.30;1.00;;;;;;5058774;28;20666;-68
2022/11/08 11:22:34;;;;;;;2.03;1.45;;;18.10;1.00;;;;;;5043753;28;20207;-68
2022/11/08 11:25:16;;;;;;;4.13;1.98;;;17.90;1.00;;;;;;5061240;28;20258;-65
2022/11/08 11:27:50;;;;;;;3.30;1.30;;;17.80;1.00;;;;;;5043297;28;20579;-64
2022/11/08 11:30:29;;;;;;;2.95;1.50;;;17.60;1.00;;;;;;5042113;28;20199;-63
2022/11/08 11:33:00;;;;;;;2.40;1.65;;;17.70;1.00;;;;;;5062636;28;20199;-65
2022/11/08 11:35:46;;;;;;;1.50;1.30;;;17.60;1.00;;;;;;5043255;28;20767;-65
2022/11/08 11:38:39;;;;;;;4.22;1.30;;;17.50;1.00;;;;;;5060863;28;20238;-64
2022/11/08 11:41:16;;;;;;;4.20;1.55;;;17.40;1.00;;;;;;5021905;28;20208;-65
2022/11/08 11:44:12;;;;;;;2.85;1.63;;;17.30;1.00;;;;;;5056174;28;20268;-65
2022/11/08 11:47:03;;;;;;;4.78;1.70;;;16.90;1.00;;;;;;5026543;28;20203;-64
2022/11/08 11:49:31;;;;;;;2.55;1.60;;;16.80;1.00;;;;;;5032719;28;20204;-64
2022/11/08 11:51:58;;;;;;;3.67;1.50;;;16.70;1.00;;;;;;5042359;28;20218;-66
2022/11/08 11:54:30;;;;;;;3.92;1.60;;;16.70;1.00;;;;;;5044471;28;20256;-63
2022/11/08 11:57:25;;;;;;;2.75;1.67;;;16.60;1.00;;;;;;5059463;28;20294;-65
2022/11/08 12:00:03;;;;;;;2.92;1.50;;;16.60;1.00;;;;;;5051951;28;20221;-66
2022/11/08 12:03:04;;;;;;;2.33;1.73;;;16.60;1.00;;;;;;5043470;28;20219;-62
2022/11/08 12:05:40;;;;;;;2.75;1.60;;;16.50;1.00;;;;;;5042077;28;20199;-65
2022/11/08 12:08:25;;;;;;;5.47;1.70;;;16.50;1.00;;;;;;5043971;28;20215;-66
2022/11/08 12:11:10;;;;;;;5.40;1.88;;;16.50;1.00;;;;;;5042641;28;20199;-65
2022/11/08 12:13:49;;;;;;;6.57;2.10;;;16.50;1.00;;;;;;5059579;28;20203;-68
2022/11/08 12:16:32;;;;;;;5.75;1.52;;;16.50;1.00;;;;;;5058301;28;20248;-68
2022/11/08 12:19:28;;;;;;;2.13;1.50;;;16.40;1.00;;;;;;5038977;28;20233;-69
2022/11/08 12:22:13;;;;;;;3.60;1.45;;;16.50;1.00;;;;;;5059238;28;20272;-69
2022/11/08 12:24:48;;;;;;;4.75;1.80;;;16.60;1.00;;;;;;5050846;28;20277;-69
2022/11/08 12:27:36;;;;;;;3.13;1.40;;;16.90;1.00;;;;;;5048522;28;20709;-69
2022/11/08 12:30:15;;;;;;;2.45;1.70;;;17.00;1.00;;;;;;5058352;28;20729;-68
2022/11/08 12:33:03;;;;;;;3.42;1.70;;;16.80;1.00;;;;;;5049590;28;20262;-68
2022/11/08 12:36:22;;;;;;;5.20;1.85;;;16.60;1.00;;;;;;5043327;28;20222;-69
2022/11/08 12:38:58;;;;;;;2.08;1.67;;;16.60;1.00;;;;;;5001276;28;20214;-69
2022/11/08 12:41:34;;;;;;;3.95;1.63;;;16.60;1.00;;;;;;5056591;28;20190;-69
2022/11/08 12:44:07;;;;;;;6.07;1.80;;;16.60;1.00;;;;;;5042151;28;20234;-69
2022/11/08 12:47:24;;;;;;;5.63;2.35;;;16.50;1.00;;;;;;5043005;28;20244;-68
2022/11/08 12:50:12;;;;;;;3.55;2.13;;;16.50;1.00;;;;;;4989435;28;20567;-68
2022/11/08 12:53:17;;;;;;;6.35;2.00;;;16.50;1.00;;;;;;5048743;28;20211;-68
2022/11/08 12:55:47;;;;;;;3.80;1.70;;;16.50;1.00;;;;;;5047591;28;20214;-68
2022/11/08 12:58:29;;;;;;;3.65;1.73;;;16.70;1.00;;;;;;5057689;28;20231;-69
2022/11/08 13:01:05;;;;;;;2.28;1.52;;;16.90;1.00;;;;;;5057010;28;20195;-69
2022/11/08 13:03:42;;;;;;;7.68;2.00;;;17.10;1.00;;;;;;5040326;28;20216;-69
2022/11/08 13:06:30;;;;;;;5.85;2.30;;;17.00;1.00;;;;;;5057925;28;20192;-69
2022/11/08 13:09:22;;;;;;;4.78;2.20;;;17.30;1.00;;;;;;5041013;28;20191;-69
2022/11/08 13:12:06;;;;;;;2.65;1.33;;;17.00;1.00;;;;;;5057490;28;20213;-68
2022/11/08 13:14:33;;;;;;;3.58;1.73;;;16.90;1.00;;;;;;5048504;28;20205;-69
2022/11/08 13:17:25;;;;;;;4.95;1.88;;;16.80;1.00;;;;;;5030922;28;20197;-68
2022/11/08 13:20:01;;;;;;;3.33;1.80;;;16.90;1.00;;;;;;5058592;28;20194;-69
2022/11/08 13:22:31;;;;;;;4.88;2.10;;;16.80;1.00;;;;;;5059358;28;20221;-69
2022/11/08 13:25:10;;;;;;;4.50;1.77;;;16.90;1.00;;;;;;5028805;28;20215;-69
2022/11/08 13:27:42;;;;;;;8.82;2.20;;;17.00;1.00;;;;;;5040494;28;20350;-69
2022/11/08 13:30:15;;;;;;;2.78;1.60;;;17.00;1.00;;;;;;5041698;28;20709;-68
2022/11/08 13:32:42;;;;;;;3.33;1.55;;;17.20;1.00;;;;;;5024667;28;20250;-69
2022/11/08 13:35:39;;;;;;;2.67;1.77;;;17.30;1.00;;;;;;5046755;28;20681;-68
2022/11/08 13:38:12;;;;;;;4.60;1.80;;;17.40;1.00;;;;;;5046308;28;20199;-69
2022/11/08 13:41:02;;;;;;;5.07;1.75;;;17.20;1.00;;;;;;5028990;28;20678;-70